Terminal Aerodrome Forecast
Issued by NWS Albany, NY

Home | Current Version | Previous Version | Text Only | Print | Product List | Glossary On
Versions: 1 2 3 4 5 6 7 8 9 10 11 12 13
000
FTUS41 KALY 232327
TAFALB
TAF
KALB 232327Z 2400/2424 19007KT P6SM SCT070
     FM241000 VRB03KT 3SM BR VCSH FEW008 OVC015
     FM241500 17006KT P6SM SCT015 OVC025
     FM242000 18010G16KT P6SM SCT025 BKN050=

USA.gov is the U.S. government's official web portal to all federal, state and local government web resources and services.